sensor_id;sensor_type;location;lat;lon;timestamp;P1;durP1;ratioP1;P2;durP2;ratioP2
47483;SDS011;54076;50.322;18.650;2023-05-31T00:03:31;11.20;;;4.40;;
47483;SDS011;54076;50.322;18.650;2023-05-31T00:08:32;10.00;;;3.90;;
47483;SDS011;54076;50.322;18.650;2023-05-31T00:13:33;11.60;;;4.30;;
47483;SDS011;54076;50.322;18.650;2023-05-31T00:18:34;10.10;;;4.10;;
47483;SDS011;54076;50.322;18.650;2023-05-31T00:23:35;10.50;;;4.60;;
47483;SDS011;54076;50.322;18.650;2023-05-31T00:28:36;10.10;;;4.00;;
47483;SDS011;54076;50.322;18.650;2023-05-31T00:33:37;12.20;;;4.40;;
47483;SDS011;54076;50.322;18.650;2023-05-31T00:38:38;9.80;;;4.10;;
47483;SDS011;54076;50.322;18.650;2023-05-31T00:43:39;13.00;;;4.00;;
47483;SDS011;54076;50.322;18.650;2023-05-31T00:48:41;10.00;;;4.10;;
47483;SDS011;54076;50.322;18.650;2023-05-31T00:53:43;9.90;;;4.50;;
47483;SDS011;54076;50.322;18.650;2023-05-31T00:58:45;10.40;;;4.30;;
47483;SDS011;54076;50.322;18.650;2023-05-31T01:03:46;13.40;;;4.80;;
47483;SDS011;54076;50.322;18.650;2023-05-31T01:08:47;11.80;;;4.40;;
47483;SDS011;54076;50.322;18.650;2023-05-31T01:19:05;8.90;;;4.40;;
47483;SDS011;54076;50.322;18.650;2023-05-31T01:30:16;9.90;;;4.30;;
47483;SDS011;54076;50.322;18.650;2023-05-31T01:35:20;16.40;;;4.30;;
47483;SDS011;54076;50.322;18.650;2023-05-31T01:40:21;11.70;;;4.50;;
47483;SDS011;54076;50.322;18.650;2023-05-31T01:45:22;13.40;;;4.70;;
47483;SDS011;54076;50.322;18.650;2023-05-31T01:50:24;12.50;;;4.50;;
47483;SDS011;54076;50.322;18.650;2023-05-31T01:55:27;11.60;;;4.50;;
47483;SDS011;54076;50.322;18.650;2023-05-31T02:00:29;12.70;;;5.10;;
47483;SDS011;54076;50.322;18.650;2023-05-31T02:05:31;10.70;;;4.50;;
47483;SDS011;54076;50.322;18.650;2023-05-31T02:10:32;9.50;;;4.30;;
47483;SDS011;54076;50.322;18.650;2023-05-31T02:15:33;9.30;;;4.20;;
47483;SDS011;54076;50.322;18.650;2023-05-31T02:20:37;13.40;;;4.80;;
47483;SDS011;54076;50.322;18.650;2023-05-31T02:25:40;9.90;;;4.10;;
47483;SDS011;54076;50.322;18.650;2023-05-31T02:30:41;11.00;;;4.50;;
47483;SDS011;54076;50.322;18.650;2023-05-31T02:35:53;12.40;;;4.90;;
47483;SDS011;54076;50.322;18.650;2023-05-31T02:40:54;9.30;;;4.20;;
47483;SDS011;54076;50.322;18.650;2023-05-31T02:45:56;11.20;;;4.50;;
47483;SDS011;54076;50.322;18.650;2023-05-31T02:50:57;9.50;;;4.20;;
47483;SDS011;54076;50.322;18.650;2023-05-31T02:55:59;8.70;;;3.80;;
47483;SDS011;54076;50.322;18.650;2023-05-31T03:01:00;10.40;;;4.30;;
47483;SDS011;54076;50.322;18.650;2023-05-31T03:06:01;10.30;;;4.50;;
47483;SDS011;54076;50.322;18.650;2023-05-31T03:11:02;9.60;;;4.30;;
47483;SDS011;54076;50.322;18.650;2023-05-31T03:16:04;8.90;;;4.10;;
47483;SDS011;54076;50.322;18.650;2023-05-31T03:21:05;10.30;;;4.40;;
47483;SDS011;54076;50.322;18.650;2023-05-31T03:26:06;11.80;;;4.60;;
47483;SDS011;54076;50.322;18.650;2023-05-31T03:31:07;11.50;;;4.70;;
47483;SDS011;54076;50.322;18.650;2023-05-31T03:36:09;13.10;;;4.70;;
47483;SDS011;54076;50.322;18.650;2023-05-31T03:41:10;11.20;;;5.40;;
47483;SDS011;54076;50.322;18.650;2023-05-31T03:46:11;12.20;;;4.90;;
47483;SDS011;54076;50.322;18.650;2023-05-31T03:51:12;22.70;;;5.60;;
47483;SDS011;54076;50.322;18.650;2023-05-31T03:56:13;12.90;;;4.60;;
47483;SDS011;54076;50.322;18.650;2023-05-31T04:01:15;10.20;;;5.10;;
47483;SDS011;54076;50.322;18.650;2023-05-31T04:06:18;12.30;;;5.10;;
47483;SDS011;54076;50.322;18.650;2023-05-31T04:11:19;12.30;;;5.10;;
47483;SDS011;54076;50.322;18.650;2023-05-31T04:16:20;12.80;;;5.50;;
47483;SDS011;54076;50.322;18.650;2023-05-31T04:21:21;13.10;;;5.30;;
47483;SDS011;54076;50.322;18.650;2023-05-31T04:26:22;21.10;;;5.00;;
47483;SDS011;54076;50.322;18.650;2023-05-31T04:31:23;12.50;;;4.80;;
47483;SDS011;54076;50.322;18.650;2023-05-31T04:36:29;13.50;;;4.80;;
47483;SDS011;54076;50.322;18.650;2023-05-31T04:41:33;12.10;;;5.00;;
47483;SDS011;54076;50.322;18.650;2023-05-31T04:46:34;13.00;;;4.70;;
47483;SDS011;54076;50.322;18.650;2023-05-31T04:51:35;12.90;;;4.90;;
47483;SDS011;54076;50.322;18.650;2023-05-31T04:56:36;15.60;;;4.10;;
47483;SDS011;54076;50.322;18.650;2023-05-31T05:01:38;12.20;;;4.30;;
47483;SDS011;54076;50.322;18.650;2023-05-31T05:06:40;9.70;;;3.70;;
47483;SDS011;54076;50.322;18.650;2023-05-31T05:11:42;12.70;;;4.00;;
47483;SDS011;54076;50.322;18.650;2023-05-31T05:16:43;8.60;;;3.10;;
47483;SDS011;54076;50.322;18.650;2023-05-31T05:21:44;9.90;;;3.70;;
47483;SDS011;54076;50.322;18.650;2023-05-31T05:26:45;11.40;;;3.30;;
47483;SDS011;54076;50.322;18.650;2023-05-31T05:31:47;9.90;;;3.70;;
47483;SDS011;54076;50.322;18.650;2023-05-31T05:36:49;10.10;;;3.70;;
47483;SDS011;54076;50.322;18.650;2023-05-31T05:41:50;9.20;;;3.40;;
47483;SDS011;54076;50.322;18.650;2023-05-31T05:46:51;8.90;;;3.80;;
47483;SDS011;54076;50.322;18.650;2023-05-31T05:51:52;9.10;;;3.80;;
47483;SDS011;54076;50.322;18.650;2023-05-31T05:56:53;10.30;;;3.90;;
47483;SDS011;54076;50.322;18.650;2023-05-31T06:01:54;11.90;;;4.40;;
47483;SDS011;54076;50.322;18.650;2023-05-31T06:06:55;9.80;;;3.60;;
47483;SDS011;54076;50.322;18.650;2023-05-31T06:11:56;18.90;;;4.50;;
47483;SDS011;54076;50.322;18.650;2023-05-31T06:16:57;10.90;;;3.80;;
47483;SDS011;54076;50.322;18.650;2023-05-31T06:21:58;11.30;;;4.30;;
47483;SDS011;54076;50.322;18.650;2023-05-31T06:27:00;10.80;;;4.20;;
47483;SDS011;54076;50.322;18.650;2023-05-31T06:32:03;10.70;;;3.80;;
47483;SDS011;54076;50.322;18.650;2023-05-31T06:37:05;11.40;;;4.30;;
47483;SDS011;54076;50.322;18.650;2023-05-31T06:42:09;11.70;;;4.80;;
47483;SDS011;54076;50.322;18.650;2023-05-31T06:47:10;13.30;;;4.50;;
47483;SDS011;54076;50.322;18.650;2023-05-31T06:52:12;13.60;;;4.30;;
47483;SDS011;54076;50.322;18.650;2023-05-31T06:57:13;13.60;;;3.90;;
47483;SDS011;54076;50.322;18.650;2023-05-31T07:02:15;10.40;;;3.70;;
47483;SDS011;54076;50.322;18.650;2023-05-31T07:07:17;13.90;;;3.80;;
47483;SDS011;54076;50.322;18.650;2023-05-31T07:12:18;16.20;;;4.20;;
47483;SDS011;54076;50.322;18.650;2023-05-31T07:17:19;9.40;;;3.50;;
47483;SDS011;54076;50.322;18.650;2023-05-31T07:22:20;12.10;;;4.20;;
47483;SDS011;54076;50.322;18.650;2023-05-31T07:27:22;10.60;;;3.30;;
47483;SDS011;54076;50.322;18.650;2023-05-31T07:32:23;9.80;;;3.80;;
47483;SDS011;54076;50.322;18.650;2023-05-31T07:37:24;11.00;;;3.30;;
47483;SDS011;54076;50.322;18.650;2023-05-31T07:42:25;12.80;;;3.70;;
47483;SDS011;54076;50.322;18.650;2023-05-31T07:47:27;11.50;;;3.40;;
47483;SDS011;54076;50.322;18.650;2023-05-31T07:52:29;9.00;;;3.20;;
47483;SDS011;54076;50.322;18.650;2023-05-31T07:57:30;11.20;;;3.30;;
47483;SDS011;54076;50.322;18.650;2023-05-31T08:02:31;8.10;;;2.60;;
47483;SDS011;54076;50.322;18.650;2023-05-31T08:07:33;9.20;;;2.80;;
47483;SDS011;54076;50.322;18.650;2023-05-31T08:12:34;6.60;;;2.00;;
47483;SDS011;54076;50.322;18.650;2023-05-31T08:17:35;8.50;;;2.20;;
47483;SDS011;54076;50.322;18.650;2023-05-31T08:22:36;6.00;;;2.30;;
47483;SDS011;54076;50.322;18.650;2023-05-31T08:27:37;6.20;;;2.00;;
47483;SDS011;54076;50.322;18.650;2023-05-31T08:32:39;7.20;;;2.40;;
47483;SDS011;54076;50.322;18.650;2023-05-31T08:37:43;7.50;;;2.00;;
47483;SDS011;54076;50.322;18.650;2023-05-31T08:43:10;8.90;;;2.00;;
47483;SDS011;54076;50.322;18.650;2023-05-31T08:49:00;5.60;;;2.20;;
47483;SDS011;54076;50.322;18.650;2023-05-31T08:54:06;5.40;;;2.00;;
47483;SDS011;54076;50.322;18.650;2023-05-31T08:59:10;8.30;;;2.70;;
47483;SDS011;54076;50.322;18.650;2023-05-31T09:04:14;7.10;;;2.20;;
47483;SDS011;54076;50.322;18.650;2023-05-31T09:09:15;6.40;;;2.30;;
47483;SDS011;54076;50.322;18.650;2023-05-31T09:14:16;5.60;;;2.30;;
47483;SDS011;54076;50.322;18.650;2023-05-31T09:19:17;6.20;;;2.70;;
47483;SDS011;54076;50.322;18.650;2023-05-31T09:24:18;7.00;;;2.50;;
47483;SDS011;54076;50.322;18.650;2023-05-31T09:29:20;6.30;;;2.00;;
47483;SDS011;54076;50.322;18.650;2023-05-31T09:34:27;8.10;;;2.10;;
47483;SDS011;54076;50.322;18.650;2023-05-31T09:39:32;5.50;;;2.20;;
47483;SDS011;54076;50.322;18.650;2023-05-31T09:44:34;6.80;;;2.00;;
47483;SDS011;54076;50.322;18.650;2023-05-31T09:49:36;5.60;;;2.30;;
47483;SDS011;54076;50.322;18.650;2023-05-31T09:54:37;5.50;;;2.20;;
47483;SDS011;54076;50.322;18.650;2023-05-31T09:59:39;5.00;;;1.80;;
47483;SDS011;54076;50.322;18.650;2023-05-31T10:04:41;5.90;;;2.00;;
47483;SDS011;54076;50.322;18.650;2023-05-31T10:09:42;4.90;;;1.90;;
47483;SDS011;54076;50.322;18.650;2023-05-31T10:14:46;6.00;;;2.00;;
47483;SDS011;54076;50.322;18.650;2023-05-31T10:19:59;4.20;;;1.70;;
47483;SDS011;54076;50.322;18.650;2023-05-31T10:25:37;5.40;;;1.90;;
47483;SDS011;54076;50.322;18.650;2023-05-31T10:30:50;5.00;;;1.70;;
47483;SDS011;54076;50.322;18.650;2023-05-31T10:35:52;6.00;;;1.90;;
47483;SDS011;54076;50.322;18.650;2023-05-31T10:41:06;5.60;;;1.80;;
47483;SDS011;54076;50.322;18.650;2023-05-31T10:46:19;5.00;;;1.80;;
47483;SDS011;54076;50.322;18.650;2023-05-31T10:56:55;5.50;;;2.00;;
47483;SDS011;54076;50.322;18.650;2023-05-31T11:01:57;5.20;;;1.70;;
47483;SDS011;54076;50.322;18.650;2023-05-31T11:07:15;6.20;;;1.70;;
47483;SDS011;54076;50.322;18.650;2023-05-31T11:12:40;4.90;;;1.50;;
47483;SDS011;54076;50.322;18.650;2023-05-31T11:17:59;16.70;;;10.40;;
47483;SDS011;54076;50.322;18.650;2023-05-31T11:28:20;6.00;;;1.50;;
47483;SDS011;54076;50.322;18.650;2023-05-31T11:33:21;7.00;;;1.50;;
47483;SDS011;54076;50.322;18.650;2023-05-31T11:38:23;4.60;;;1.50;;
47483;SDS011;54076;50.322;18.650;2023-05-31T11:43:25;8.20;;;1.40;;
47483;SDS011;54076;50.322;18.650;2023-05-31T11:48:34;4.50;;;1.40;;
47483;SDS011;54076;50.322;18.650;2023-05-31T11:53:39;5.20;;;1.50;;
47483;SDS011;54076;50.322;18.650;2023-05-31T11:58:45;4.00;;;1.40;;
47483;SDS011;54076;50.322;18.650;2023-05-31T12:03:47;4.90;;;1.30;;
47483;SDS011;54076;50.322;18.650;2023-05-31T12:08:48;4.80;;;1.30;;
47483;SDS011;54076;50.322;18.650;2023-05-31T12:13:55;5.50;;;1.60;;
47483;SDS011;54076;50.322;18.650;2023-05-31T12:18:58;3.80;;;1.30;;
47483;SDS011;54076;50.322;18.650;2023-05-31T12:23:59;5.20;;;1.40;;
47483;SDS011;54076;50.322;18.650;2023-05-31T12:29:12;5.20;;;1.50;;
47483;SDS011;54076;50.322;18.650;2023-05-31T12:34:17;3.70;;;1.30;;
47483;SDS011;54076;50.322;18.650;2023-05-31T12:39:20;5.90;;;1.90;;
47483;SDS011;54076;50.322;18.650;2023-05-31T12:44:23;5.00;;;1.40;;
47483;SDS011;54076;50.322;18.650;2023-05-31T12:49:25;5.40;;;1.90;;
47483;SDS011;54076;50.322;18.650;2023-05-31T12:54:30;3.80;;;1.40;;
47483;SDS011;54076;50.322;18.650;2023-05-31T12:59:36;5.50;;;1.40;;
47483;SDS011;54076;50.322;18.650;2023-05-31T13:04:38;7.10;;;1.50;;
47483;SDS011;54076;50.322;18.650;2023-05-31T13:09:39;4.30;;;1.40;;
47483;SDS011;54076;50.322;18.650;2023-05-31T13:14:40;5.50;;;1.80;;
47483;SDS011;54076;50.322;18.650;2023-05-31T13:19:41;8.30;;;1.80;;
47483;SDS011;54076;50.322;18.650;2023-05-31T13:24:43;4.50;;;1.50;;
47483;SDS011;54076;50.322;18.650;2023-05-31T13:29:44;6.50;;;1.60;;
47483;SDS011;54076;50.322;18.650;2023-05-31T13:34:45;3.80;;;1.50;;
47483;SDS011;54076;50.322;18.650;2023-05-31T13:39:47;8.20;;;1.40;;
47483;SDS011;54076;50.322;18.650;2023-05-31T13:44:48;5.70;;;1.50;;
47483;SDS011;54076;50.322;18.650;2023-05-31T13:49:49;5.30;;;1.50;;
47483;SDS011;54076;50.322;18.650;2023-05-31T13:54:50;4.80;;;1.40;;
47483;SDS011;54076;50.322;18.650;2023-05-31T13:59:51;4.60;;;1.50;;
47483;SDS011;54076;50.322;18.650;2023-05-31T14:04:52;5.60;;;1.70;;
47483;SDS011;54076;50.322;18.650;2023-05-31T14:09:53;5.00;;;1.80;;
47483;SDS011;54076;50.322;18.650;2023-05-31T14:14:54;4.50;;;1.40;;
47483;SDS011;54076;50.322;18.650;2023-05-31T14:19:56;4.40;;;1.60;;
47483;SDS011;54076;50.322;18.650;2023-05-31T14:24:58;6.20;;;1.80;;
47483;SDS011;54076;50.322;18.650;2023-05-31T14:29:59;6.80;;;1.70;;
47483;SDS011;54076;50.322;18.650;2023-05-31T14:35:00;4.80;;;2.00;;
47483;SDS011;54076;50.322;18.650;2023-05-31T14:40:01;7.10;;;1.90;;
47483;SDS011;54076;50.322;18.650;2023-05-31T14:45:03;3.90;;;1.50;;
47483;SDS011;54076;50.322;18.650;2023-05-31T14:50:05;4.80;;;1.80;;
47483;SDS011;54076;50.322;18.650;2023-05-31T14:55:07;9.50;;;1.80;;
47483;SDS011;54076;50.322;18.650;2023-05-31T15:00:09;6.60;;;1.70;;
47483;SDS011;54076;50.322;18.650;2023-05-31T15:05:13;6.40;;;1.70;;
47483;SDS011;54076;50.322;18.650;2023-05-31T15:10:14;4.80;;;1.50;;
47483;SDS011;54076;50.322;18.650;2023-05-31T15:15:15;3.60;;;1.60;;
47483;SDS011;54076;50.322;18.650;2023-05-31T15:20:17;6.20;;;2.00;;
47483;SDS011;54076;50.322;18.650;2023-05-31T15:25:19;5.40;;;1.90;;
47483;SDS011;54076;50.322;18.650;2023-05-31T15:30:21;4.50;;;1.50;;
47483;SDS011;54076;50.322;18.650;2023-05-31T15:35:22;7.40;;;2.20;;
47483;SDS011;54076;50.322;18.650;2023-05-31T15:40:23;5.10;;;1.60;;
47483;SDS011;54076;50.322;18.650;2023-05-31T15:45:25;6.20;;;2.10;;
47483;SDS011;54076;50.322;18.650;2023-05-31T15:50:26;8.00;;;2.20;;
47483;SDS011;54076;50.322;18.650;2023-05-31T15:55:27;5.10;;;1.60;;
47483;SDS011;54076;50.322;18.650;2023-05-31T16:00:29;12.80;;;1.50;;
47483;SDS011;54076;50.322;18.650;2023-05-31T16:05:30;4.20;;;1.90;;
47483;SDS011;54076;50.322;18.650;2023-05-31T16:10:31;4.70;;;1.50;;
47483;SDS011;54076;50.322;18.650;2023-05-31T16:15:33;4.10;;;1.30;;
47483;SDS011;54076;50.322;18.650;2023-05-31T16:20:34;5.80;;;1.70;;
47483;SDS011;54076;50.322;18.650;2023-05-31T16:25:35;5.20;;;1.40;;
47483;SDS011;54076;50.322;18.650;2023-05-31T16:30:36;6.20;;;1.70;;
47483;SDS011;54076;50.322;18.650;2023-05-31T16:35:37;4.50;;;1.40;;
47483;SDS011;54076;50.322;18.650;2023-05-31T16:40:39;4.20;;;1.70;;
47483;SDS011;54076;50.322;18.650;2023-05-31T16:45:40;4.00;;;1.50;;
47483;SDS011;54076;50.322;18.650;2023-05-31T16:50:41;3.90;;;1.50;;
47483;SDS011;54076;50.322;18.650;2023-05-31T16:55:42;5.00;;;1.60;;
47483;SDS011;54076;50.322;18.650;2023-05-31T17:00:43;4.30;;;1.50;;
47483;SDS011;54076;50.322;18.650;2023-05-31T17:05:45;8.20;;;1.70;;
47483;SDS011;54076;50.322;18.650;2023-05-31T17:10:47;6.10;;;1.70;;
47483;SDS011;54076;50.322;18.650;2023-05-31T17:15:48;5.70;;;2.00;;
47483;SDS011;54076;50.322;18.650;2023-05-31T17:20:49;4.20;;;1.70;;
47483;SDS011;54076;50.322;18.650;2023-05-31T17:25:53;4.90;;;1.60;;
47483;SDS011;54076;50.322;18.650;2023-05-31T17:30:54;7.50;;;1.80;;
47483;SDS011;54076;50.322;18.650;2023-05-31T17:35:56;5.30;;;1.70;;
47483;SDS011;54076;50.322;18.650;2023-05-31T17:40:57;5.10;;;1.50;;
47483;SDS011;54076;50.322;18.650;2023-05-31T17:45:58;4.70;;;1.70;;
47483;SDS011;54076;50.322;18.650;2023-05-31T17:50:59;5.50;;;1.90;;
47483;SDS011;54076;50.322;18.650;2023-05-31T17:56:00;4.80;;;1.70;;
47483;SDS011;54076;50.322;18.650;2023-05-31T18:01:01;4.10;;;1.70;;
47483;SDS011;54076;50.322;18.650;2023-05-31T18:06:02;5.20;;;1.30;;
47483;SDS011;54076;50.322;18.650;2023-05-31T18:11:06;4.30;;;1.80;;
47483;SDS011;54076;50.322;18.650;2023-05-31T18:16:07;7.80;;;2.00;;
47483;SDS011;54076;50.322;18.650;2023-05-31T18:21:08;5.00;;;1.80;;
47483;SDS011;54076;50.322;18.650;2023-05-31T18:26:09;5.90;;;1.70;;
47483;SDS011;54076;50.322;18.650;2023-05-31T18:31:10;7.70;;;2.70;;
47483;SDS011;54076;50.322;18.650;2023-05-31T18:36:11;8.50;;;2.80;;
47483;SDS011;54076;50.322;18.650;2023-05-31T18:41:12;7.00;;;2.40;;
47483;SDS011;54076;50.322;18.650;2023-05-31T18:46:13;5.40;;;2.00;;
47483;SDS011;54076;50.322;18.650;2023-05-31T18:51:14;4.70;;;1.90;;
47483;SDS011;54076;50.322;18.650;2023-05-31T18:56:16;6.30;;;2.00;;
47483;SDS011;54076;50.322;18.650;2023-05-31T19:01:18;5.40;;;2.80;;
47483;SDS011;54076;50.322;18.650;2023-05-31T19:06:21;5.60;;;2.20;;
47483;SDS011;54076;50.322;18.650;2023-05-31T19:11:22;7.30;;;2.50;;
47483;SDS011;54076;50.322;18.650;2023-05-31T19:16:23;6.00;;;2.00;;
47483;SDS011;54076;50.322;18.650;2023-05-31T19:21:24;6.80;;;2.40;;
47483;SDS011;54076;50.322;18.650;2023-05-31T19:26:25;5.50;;;2.10;;
47483;SDS011;54076;50.322;18.650;2023-05-31T19:31:27;6.40;;;2.30;;
47483;SDS011;54076;50.322;18.650;2023-05-31T19:36:30;5.40;;;1.90;;
47483;SDS011;54076;50.322;18.650;2023-05-31T19:41:32;5.70;;;2.20;;
47483;SDS011;54076;50.322;18.650;2023-05-31T19:46:34;10.40;;;2.30;;
47483;SDS011;54076;50.322;18.650;2023-05-31T19:51:35;6.00;;;2.40;;
47483;SDS011;54076;50.322;18.650;2023-05-31T19:56:37;15.20;;;7.30;;
47483;SDS011;54076;50.322;18.650;2023-05-31T20:01:38;7.40;;;4.00;;
47483;SDS011;54076;50.322;18.650;2023-05-31T20:06:39;7.20;;;2.50;;
47483;SDS011;54076;50.322;18.650;2023-05-31T20:11:40;9.10;;;2.90;;
47483;SDS011;54076;50.322;18.650;2023-05-31T20:16:41;10.30;;;2.70;;
47483;SDS011;54076;50.322;18.650;2023-05-31T20:21:43;11.20;;;2.70;;
47483;SDS011;54076;50.322;18.650;2023-05-31T20:26:44;6.30;;;2.30;;
47483;SDS011;54076;50.322;18.650;2023-05-31T20:31:45;10.20;;;2.70;;
47483;SDS011;54076;50.322;18.650;2023-05-31T20:36:47;6.10;;;2.80;;
47483;SDS011;54076;50.322;18.650;2023-05-31T20:41:50;8.90;;;3.00;;
47483;SDS011;54076;50.322;18.650;2023-05-31T20:46:51;8.60;;;2.90;;
47483;SDS011;54076;50.322;18.650;2023-05-31T20:51:51;7.40;;;3.00;;
47483;SDS011;54076;50.322;18.650;2023-05-31T20:56:53;11.60;;;4.00;;
47483;SDS011;54076;50.322;18.650;2023-05-31T21:01:54;7.30;;;3.90;;
47483;SDS011;54076;50.322;18.650;2023-05-31T21:06:55;7.80;;;3.30;;
47483;SDS011;54076;50.322;18.650;2023-05-31T21:11:55;6.80;;;3.00;;
47483;SDS011;54076;50.322;18.650;2023-05-31T21:16:57;7.70;;;2.90;;
47483;SDS011;54076;50.322;18.650;2023-05-31T21:21:59;7.50;;;3.30;;
47483;SDS011;54076;50.322;18.650;2023-05-31T21:27:00;8.20;;;3.50;;
47483;SDS011;54076;50.322;18.650;2023-05-31T21:32:01;8.80;;;3.30;;
47483;SDS011;54076;50.322;18.650;2023-05-31T21:37:02;6.70;;;3.30;;
47483;SDS011;54076;50.322;18.650;2023-05-31T21:42:04;9.20;;;3.50;;
47483;SDS011;54076;50.322;18.650;2023-05-31T21:47:06;6.90;;;2.80;;
47483;SDS011;54076;50.322;18.650;2023-05-31T21:52:07;7.10;;;3.20;;
47483;SDS011;54076;50.322;18.650;2023-05-31T21:57:08;7.90;;;2.90;;
47483;SDS011;54076;50.322;18.650;2023-05-31T22:02:10;9.50;;;3.20;;
47483;SDS011;54076;50.322;18.650;2023-05-31T22:07:11;6.40;;;3.10;;
47483;SDS011;54076;50.322;18.650;2023-05-31T22:12:12;11.90;;;3.70;;
47483;SDS011;54076;50.322;18.650;2023-05-31T22:17:13;17.10;;;7.30;;
47483;SDS011;54076;50.322;18.650;2023-05-31T22:22:18;8.30;;;4.00;;
47483;SDS011;54076;50.322;18.650;2023-05-31T22:27:19;7.50;;;3.30;;
47483;SDS011;54076;50.322;18.650;2023-05-31T22:32:21;7.40;;;3.60;;
47483;SDS011;54076;50.322;18.650;2023-05-31T22:37:22;8.20;;;3.50;;
47483;SDS011;54076;50.322;18.650;2023-05-31T22:42:23;8.90;;;3.40;;
47483;SDS011;54076;50.322;18.650;2023-05-31T22:47:24;6.90;;;3.30;;
47483;SDS011;54076;50.322;18.650;2023-05-31T22:52:25;7.70;;;3.30;;
47483;SDS011;54076;50.322;18.650;2023-05-31T22:57:26;9.30;;;3.60;;
47483;SDS011;54076;50.322;18.650;2023-05-31T23:02:27;8.20;;;4.10;;
47483;SDS011;54076;50.322;18.650;2023-05-31T23:07:28;9.20;;;3.90;;
47483;SDS011;54076;50.322;18.650;2023-05-31T23:12:31;9.10;;;4.00;;
47483;SDS011;54076;50.322;18.650;2023-05-31T23:17:35;9.00;;;3.90;;
47483;SDS011;54076;50.322;18.650;2023-05-31T23:22:41;10.80;;;4.50;;
47483;SDS011;54076;50.322;18.650;2023-05-31T23:27:42;12.40;;;4.00;;
47483;SDS011;54076;50.322;18.650;2023-05-31T23:32:43;9.70;;;4.40;;
47483;SDS011;54076;50.322;18.650;2023-05-31T23:37:44;10.10;;;4.50;;
47483;SDS011;54076;50.322;18.650;2023-05-31T23:42:46;13.20;;;4.50;;
47483;SDS011;54076;50.322;18.650;2023-05-31T23:47:47;11.70;;;4.90;;
47483;SDS011;54076;50.322;18.650;2023-05-31T23:52:48;13.00;;;5.90;;
47483;SDS011;54076;50.322;18.650;2023-05-31T23:57:49;14.30;;;5.10;;
